sensor_id;sensor_type;location;lat;lon;timestamp;pressure;altitude;pressure_sealevel;temperature;humidity
58973;BME280;44750;52.040;7.472;2023-05-09T00:03:43;100595.13;;;16.65;0.00
58973;BME280;44750;52.040;7.472;2023-05-09T00:08:43;100665.69;;;16.61;0.00
58973;BME280;44750;52.040;7.472;2023-05-09T00:13:43;100713.38;;;16.59;0.00
58973;BME280;44750;52.040;7.472;2023-05-09T00:18:43;100732.63;;;16.50;0.00
58973;BME280;44750;52.040;7.472;2023-05-09T00:23:43;100760.16;;;16.49;0.00
58973;BME280;44750;52.040;7.472;2023-05-09T00:28:44;100785.31;;;16.44;0.00
58973;BME280;44750;52.040;7.472;2023-05-09T00:33:44;100796.44;;;16.43;0.00
58973;BME280;44750;52.040;7.472;2023-05-09T00:38:44;100824.22;;;16.61;0.00
58973;BME280;44750;52.040;7.472;2023-05-09T00:43:44;100816.19;;;16.60;0.00
58973;BME280;44750;52.040;7.472;2023-05-09T00:48:44;100816.75;;;16.55;0.00
58973;BME280;44750;52.040;7.472;2023-05-09T00:53:45;100823.72;;;16.58;0.00
58973;BME280;44750;52.040;7.472;2023-05-09T00:58:45;100827.69;;;16.55;0.00
58973;BME280;44750;52.040;7.472;2023-05-09T01:03:45;100816.13;;;16.53;0.00
58973;BME280;44750;52.040;7.472;2023-05-09T01:09:37;100806.84;;;16.54;0.00
58973;BME280;44750;52.040;7.472;2023-05-09T01:14:21;100820.25;;;16.64;0.00
58973;BME280;44750;52.040;7.472;2023-05-09T01:19:44;100804.50;;;16.66;0.00
58973;BME280;44750;52.040;7.472;2023-05-09T01:30:02;100780.41;;;16.54;0.00
58973;BME280;44750;52.040;7.472;2023-05-09T01:35:04;100770.34;;;16.40;0.00
58973;BME280;44750;52.040;7.472;2023-05-09T01:40:08;100769.56;;;16.31;0.00
58973;BME280;44750;52.040;7.472;2023-05-09T01:45:09;100775.44;;;16.28;0.00
58973;BME280;44750;52.040;7.472;2023-05-09T01:50:11;100781.09;;;16.27;0.00
58973;BME280;44750;52.040;7.472;2023-05-09T01:55:12;100777.03;;;16.23;0.00
58973;BME280;44750;52.040;7.472;2023-05-09T02:00:14;100769.41;;;16.18;0.00
58973;BME280;44750;52.040;7.472;2023-05-09T02:05:15;100776.19;;;16.22;0.00
58973;BME280;44750;52.040;7.472;2023-05-09T02:10:15;100782.09;;;16.26;0.00
58973;BME280;44750;52.040;7.472;2023-05-09T02:15:16;100772.78;;;16.20;0.00
58973;BME280;44750;52.040;7.472;2023-05-09T02:20:16;100782.41;;;16.16;0.00
58973;BME280;44750;52.040;7.472;2023-05-09T02:25:17;100768.19;;;16.05;0.00
58973;BME280;44750;52.040;7.472;2023-05-09T02:30:20;100761.59;;;16.00;0.00
58973;BME280;44750;52.040;7.472;2023-05-09T02:35:23;100772.50;;;16.00;0.00
58973;BME280;44750;52.040;7.472;2023-05-09T02:40:29;100764.03;;;15.95;0.00
58973;BME280;44750;52.040;7.472;2023-05-09T02:45:29;100750.88;;;15.83;0.00
58973;BME280;44750;52.040;7.472;2023-05-09T02:50:30;100758.00;;;15.84;0.00
58973;BME280;44750;52.040;7.472;2023-05-09T02:55:32;100766.56;;;15.81;0.00
58973;BME280;44750;52.040;7.472;2023-05-09T03:00:32;100789.44;;;15.80;0.00
58973;BME280;44750;52.040;7.472;2023-05-09T03:05:35;100787.38;;;15.82;0.00
58973;BME280;44750;52.040;7.472;2023-05-09T03:10:37;100765.66;;;15.66;0.00
58973;BME280;44750;52.040;7.472;2023-05-09T03:15:37;100766.41;;;15.60;0.00
58973;BME280;44750;52.040;7.472;2023-05-09T03:20:37;100776.66;;;15.58;0.00
58973;BME280;44750;52.040;7.472;2023-05-09T03:25:38;100771.00;;;15.59;0.00
58973;BME280;44750;52.040;7.472;2023-05-09T03:30:38;100768.16;;;15.52;0.00
58973;BME280;44750;52.040;7.472;2023-05-09T03:35:38;100763.91;;;15.50;0.00
58973;BME280;44750;52.040;7.472;2023-05-09T03:40:38;100771.47;;;15.48;0.00
58973;BME280;44750;52.040;7.472;2023-05-09T03:45:38;100774.00;;;15.49;0.00
58973;BME280;44750;52.040;7.472;2023-05-09T03:50:39;100767.88;;;15.47;0.00
58973;BME280;44750;52.040;7.472;2023-05-09T03:55:39;100768.31;;;15.36;0.00
58973;BME280;44750;52.040;7.472;2023-05-09T04:00:40;100779.84;;;15.46;0.00
58973;BME280;44750;52.040;7.472;2023-05-09T04:05:40;100787.16;;;15.46;0.00
58973;BME280;44750;52.040;7.472;2023-05-09T04:10:40;100779.88;;;15.38;0.00
58973;BME280;44750;52.040;7.472;2023-05-09T04:15:42;100778.91;;;15.31;0.00
58973;BME280;44750;52.040;7.472;2023-05-09T04:20:42;100794.38;;;15.38;0.00
58973;BME280;44750;52.040;7.472;2023-05-09T04:25:42;100806.13;;;15.39;0.00
58973;BME280;44750;52.040;7.472;2023-05-09T04:30:43;100804.06;;;15.41;0.00
58973;BME280;44750;52.040;7.472;2023-05-09T04:35:43;100803.88;;;15.43;0.00
58973;BME280;44750;52.040;7.472;2023-05-09T04:40:43;100816.94;;;15.55;0.00
58973;BME280;44750;52.040;7.472;2023-05-09T04:45:44;100811.75;;;15.61;0.00
58973;BME280;44750;52.040;7.472;2023-05-09T04:50:44;100777.66;;;15.57;0.00
58973;BME280;44750;52.040;7.472;2023-05-09T04:55:44;100783.44;;;15.62;0.00
58973;BME280;44750;52.040;7.472;2023-05-09T05:00:45;100756.59;;;15.50;0.00
58973;BME280;44750;52.040;7.472;2023-05-09T05:05:45;100766.66;;;15.50;0.00
58973;BME280;44750;52.040;7.472;2023-05-09T05:10:45;100767.50;;;15.50;0.00
58973;BME280;44750;52.040;7.472;2023-05-09T05:15:45;100783.06;;;15.65;0.00
58973;BME280;44750;52.040;7.472;2023-05-09T05:20:46;100782.13;;;15.72;0.00
58973;BME280;44750;52.040;7.472;2023-05-09T05:25:47;100777.84;;;15.78;0.00
58973;BME280;44750;52.040;7.472;2023-05-09T05:30:47;100757.84;;;15.78;0.00
58973;BME280;44750;52.040;7.472;2023-05-09T05:35:47;100763.94;;;15.88;0.00
58973;BME280;44750;52.040;7.472;2023-05-09T05:40:47;100745.66;;;15.88;0.00
58973;BME280;44750;52.040;7.472;2023-05-09T05:45:48;100739.66;;;15.93;0.00
58973;BME280;44750;52.040;7.472;2023-05-09T05:50:48;100744.00;;;16.02;0.00
58973;BME280;44750;52.040;7.472;2023-05-09T05:55:48;100728.53;;;15.95;0.00
58973;BME280;44750;52.040;7.472;2023-05-09T06:00:50;100704.38;;;15.92;0.00
58973;BME280;44750;52.040;7.472;2023-05-09T06:05:51;100722.97;;;16.03;0.00
58973;BME280;44750;52.040;7.472;2023-05-09T06:10:51;100690.72;;;15.92;0.00
58973;BME280;44750;52.040;7.472;2023-05-09T06:15:54;100693.06;;;15.95;0.00
58973;BME280;44750;52.040;7.472;2023-05-09T06:20:54;100693.81;;;16.03;0.00
58973;BME280;44750;52.040;7.472;2023-05-09T06:25:55;100691.34;;;16.09;0.00
58973;BME280;44750;52.040;7.472;2023-05-09T06:30:55;100670.47;;;16.01;0.00
58973;BME280;44750;52.040;7.472;2023-05-09T06:35:55;100667.91;;;15.99;0.00
58973;BME280;44750;52.040;7.472;2023-05-09T06:40:57;100667.47;;;15.96;0.00
58973;BME280;44750;52.040;7.472;2023-05-09T06:45:58;100660.69;;;15.92;0.00
58973;BME280;44750;52.040;7.472;2023-05-09T06:50:58;100659.00;;;15.91;0.00
58973;BME280;44750;52.040;7.472;2023-05-09T06:55:58;100679.84;;;16.13;0.00
58973;BME280;44750;52.040;7.472;2023-05-09T07:00:58;100681.13;;;16.32;0.00
58973;BME280;44750;52.040;7.472;2023-05-09T07:05:59;100662.94;;;16.40;0.00
58973;BME280;44750;52.040;7.472;2023-05-09T07:10:59;100640.69;;;16.43;0.00
58973;BME280;44750;52.040;7.472;2023-05-09T07:15:59;100653.28;;;16.59;0.00
58973;BME280;44750;52.040;7.472;2023-05-09T07:20:59;100640.44;;;16.59;0.00
58973;BME280;44750;52.040;7.472;2023-05-09T07:26:00;100628.34;;;16.68;0.00
58973;BME280;44750;52.040;7.472;2023-05-09T07:31:00;100608.19;;;16.69;0.00
58973;BME280;44750;52.040;7.472;2023-05-09T07:36:00;100601.28;;;16.74;0.00
58973;BME280;44750;52.040;7.472;2023-05-09T07:41:00;100583.13;;;16.66;0.00
58973;BME280;44750;52.040;7.472;2023-05-09T07:46:01;100583.44;;;16.78;0.00
58973;BME280;44750;52.040;7.472;2023-05-09T07:51:01;100581.69;;;16.92;0.00
58973;BME280;44750;52.040;7.472;2023-05-09T07:56:01;100562.41;;;17.00;0.00
58973;BME280;44750;52.040;7.472;2023-05-09T08:01:01;100566.94;;;17.14;0.00
58973;BME280;44750;52.040;7.472;2023-05-09T08:06:02;100562.06;;;17.45;0.00
58973;BME280;44750;52.040;7.472;2023-05-09T08:11:03;100544.06;;;17.70;0.00
58973;BME280;44750;52.040;7.472;2023-05-09T08:16:04;100479.81;;;17.60;0.00
58973;BME280;44750;52.040;7.472;2023-05-09T08:21:04;100470.81;;;17.79;0.00
58973;BME280;44750;52.040;7.472;2023-05-09T08:26:04;100413.28;;;17.66;0.00
58973;BME280;44750;52.040;7.472;2023-05-09T08:31:05;100401.97;;;17.76;0.00
58973;BME280;44750;52.040;7.472;2023-05-09T08:36:05;100386.81;;;17.86;0.00
58973;BME280;44750;52.040;7.472;2023-05-09T08:41:05;100370.19;;;17.95;0.00
58973;BME280;44750;52.040;7.472;2023-05-09T08:46:08;100375.06;;;18.19;0.00
58973;BME280;44750;52.040;7.472;2023-05-09T08:51:09;100348.69;;;18.32;0.00
58973;BME280;44750;52.040;7.472;2023-05-09T08:56:09;100391.69;;;19.17;0.00
58973;BME280;44750;52.040;7.472;2023-05-09T09:01:12;100294.59;;;19.18;8.54
58973;BME280;44750;52.040;7.472;2023-05-09T09:06:12;100213.75;;;19.20;20.92
58973;BME280;44750;52.040;7.472;2023-05-09T09:11:13;100160.06;;;19.06;25.20
58973;BME280;44750;52.040;7.472;2023-05-09T09:16:18;100109.06;;;18.98;28.27
58973;BME280;44750;52.040;7.472;2023-05-09T09:21:19;100082.31;;;18.87;26.96
58973;BME280;44750;52.040;7.472;2023-05-09T09:26:19;100047.25;;;18.70;27.11
58973;BME280;44750;52.040;7.472;2023-05-09T09:31:24;100064.59;;;18.90;26.41
58973;BME280;44750;52.040;7.472;2023-05-09T09:36:28;100023.91;;;18.86;26.54
58973;BME280;44750;52.040;7.472;2023-05-09T09:41:36;100022.78;;;19.19;28.88
58973;BME280;44750;52.040;7.472;2023-05-09T09:46:45;100052.53;;;19.78;30.51
58973;BME280;44750;52.040;7.472;2023-05-09T09:51:58;100001.44;;;20.08;38.44
58973;BME280;44750;52.040;7.472;2023-05-09T09:56:58;99920.31;;;19.93;48.46
58973;BME280;44750;52.040;7.472;2023-05-09T10:02:02;99880.91;;;19.99;55.10
58973;BME280;44750;52.040;7.472;2023-05-09T10:07:03;99843.41;;;19.93;58.33
58973;BME280;44750;52.040;7.472;2023-05-09T10:12:05;99781.81;;;19.59;59.20
58973;BME280;44750;52.040;7.472;2023-05-09T10:17:07;99789.22;;;19.58;56.50
58973;BME280;44750;52.040;7.472;2023-05-09T10:22:09;99784.31;;;19.60;54.34
58973;BME280;44750;52.040;7.472;2023-05-09T10:27:11;99768.81;;;19.54;52.63
58973;BME280;44750;52.040;7.472;2023-05-09T10:32:16;99853.34;;;20.30;49.30
58973;BME280;44750;52.040;7.472;2023-05-09T10:37:19;99824.25;;;21.34;63.97
58973;BME280;44750;52.040;7.472;2023-05-09T10:42:21;99742.47;;;21.63;85.78
58973;BME280;44750;52.040;7.472;2023-05-09T10:47:25;99664.13;;;21.54;99.66
58973;BME280;44750;52.040;7.472;2023-05-09T10:58:21;99607.41;;;21.97;100.00
58973;BME280;44750;52.040;7.472;2023-05-09T11:03:23;99556.53;;;21.83;100.00
58973;BME280;44750;52.040;7.472;2023-05-09T11:08:28;99537.97;;;21.95;100.00
58973;BME280;44750;52.040;7.472;2023-05-09T11:13:30;99529.25;;;22.03;100.00
58973;BME280;44750;52.040;7.472;2023-05-09T11:18:31;99507.50;;;22.07;100.00
58973;BME280;44750;52.040;7.472;2023-05-09T11:23:31;99470.09;;;22.11;100.00
58973;BME280;44750;52.040;7.472;2023-05-09T11:28:34;99473.13;;;22.37;100.00
58973;BME280;44750;52.040;7.472;2023-05-09T11:33:35;99434.00;;;22.40;100.00
58973;BME280;44750;52.040;7.472;2023-05-09T11:38:40;99415.06;;;22.49;100.00
58973;BME280;44750;52.040;7.472;2023-05-09T11:43:42;99412.53;;;22.85;100.00
58973;BME280;44750;52.040;7.472;2023-05-09T11:48:42;99366.28;;;22.54;100.00
58973;BME280;44750;52.040;7.472;2023-05-09T11:53:43;99374.00;;;22.58;100.00
58973;BME280;44750;52.040;7.472;2023-05-09T11:58:44;99358.47;;;22.41;100.00
58973;BME280;44750;52.040;7.472;2023-05-09T12:03:44;99261.84;;;22.26;100.00
58973;BME280;44750;52.040;7.472;2023-05-09T12:08:45;99259.47;;;21.97;100.00
58973;BME280;44750;52.040;7.472;2023-05-09T12:13:50;99207.00;;;21.81;100.00
58973;BME280;44750;52.040;7.472;2023-05-09T12:18:51;99183.78;;;21.72;100.00
58973;BME280;44750;52.040;7.472;2023-05-09T12:23:54;99244.19;;;22.21;100.00
58973;BME280;44750;52.040;7.472;2023-05-09T12:28:55;99216.03;;;22.62;100.00
58973;BME280;44750;52.040;7.472;2023-05-09T12:33:55;99225.56;;;23.08;100.00
58973;BME280;44750;52.040;7.472;2023-05-09T12:38:56;99135.84;;;23.05;100.00
58973;BME280;44750;52.040;7.472;2023-05-09T12:43:56;99120.44;;;23.19;100.00
58973;BME280;44750;52.040;7.472;2023-05-09T12:48:56;99037.31;;;23.05;100.00
58973;BME280;44750;52.040;7.472;2023-05-09T12:54:01;98981.31;;;23.05;100.00
58973;BME280;44750;52.040;7.472;2023-05-09T12:59:02;98962.03;;;22.69;100.00
58973;BME280;44750;52.040;7.472;2023-05-09T13:04:04;98944.94;;;22.62;100.00
58973;BME280;44750;52.040;7.472;2023-05-09T13:09:05;98915.72;;;22.40;100.00
58973;BME280;44750;52.040;7.472;2023-05-09T13:14:05;98947.41;;;22.43;100.00
58973;BME280;44750;52.040;7.472;2023-05-09T13:19:05;98976.38;;;22.45;100.00
58973;BME280;44750;52.040;7.472;2023-05-09T13:24:06;98973.88;;;22.44;100.00
58973;BME280;44750;52.040;7.472;2023-05-09T13:29:06;98949.34;;;22.63;100.00
58973;BME280;44750;52.040;7.472;2023-05-09T13:34:06;98929.19;;;22.88;100.00
58973;BME280;44750;52.040;7.472;2023-05-09T13:39:07;98889.72;;;23.13;100.00
58973;BME280;44750;52.040;7.472;2023-05-09T13:44:07;98928.75;;;23.57;100.00
58973;BME280;44750;52.040;7.472;2023-05-09T13:49:07;98890.16;;;23.41;100.00
58973;BME280;44750;52.040;7.472;2023-05-09T13:54:07;98828.47;;;23.01;100.00
58973;BME280;44750;52.040;7.472;2023-05-09T13:59:08;98867.75;;;22.51;100.00
58973;BME280;44750;52.040;7.472;2023-05-09T14:04:08;98848.44;;;22.26;100.00
58973;BME280;44750;52.040;7.472;2023-05-09T14:09:08;98729.97;;;22.00;100.00
58973;BME280;44750;52.040;7.472;2023-05-09T14:14:09;98814.28;;;22.01;100.00
58973;BME280;44750;52.040;7.472;2023-05-09T14:19:09;99186.88;;;21.48;100.00
58973;BME280;44750;52.040;7.472;2023-05-09T14:24:10;99386.72;;;21.22;100.00
58973;BME280;44750;52.040;7.472;2023-05-09T14:29:10;99452.66;;;20.95;100.00
58973;BME280;44750;52.040;7.472;2023-05-09T14:34:10;99464.81;;;20.82;100.00
58973;BME280;44750;52.040;7.472;2023-05-09T14:39:10;99457.59;;;20.76;100.00
58973;BME280;44750;52.040;7.472;2023-05-09T14:44:10;99442.22;;;20.63;100.00
58973;BME280;44750;52.040;7.472;2023-05-09T14:49:11;99426.00;;;20.61;100.00
58973;BME280;44750;52.040;7.472;2023-05-09T14:54:11;99412.75;;;20.41;100.00
58973;BME280;44750;52.040;7.472;2023-05-09T14:59:11;99417.00;;;20.49;100.00
58973;BME280;44750;52.040;7.472;2023-05-09T15:04:13;99401.09;;;20.51;100.00
58973;BME280;44750;52.040;7.472;2023-05-09T15:09:13;99391.34;;;20.60;100.00
58973;BME280;44750;52.040;7.472;2023-05-09T15:14:14;99383.84;;;20.73;100.00
58973;BME280;44750;52.040;7.472;2023-05-09T15:19:14;99403.66;;;20.58;100.00
58973;BME280;44750;52.040;7.472;2023-05-09T15:24:14;99431.22;;;20.46;99.49
58973;BME280;44750;52.040;7.472;2023-05-09T15:29:16;99398.97;;;19.90;93.03
58973;BME280;44750;52.040;7.472;2023-05-09T15:34:16;99399.88;;;19.38;84.19
58973;BME280;44750;52.040;7.472;2023-05-09T15:39:17;99404.28;;;19.39;71.83
58973;BME280;44750;52.040;7.472;2023-05-09T15:44:17;99411.88;;;19.61;61.50
58973;BME280;44750;52.040;7.472;2023-05-09T15:49:17;99389.09;;;19.19;50.91
58973;BME280;44750;52.040;7.472;2023-05-09T15:54:18;99411.00;;;19.31;35.44
58973;BME280;44750;52.040;7.472;2023-05-09T15:59:18;99420.16;;;19.37;25.04
58973;BME280;44750;52.040;7.472;2023-05-09T16:04:18;99426.22;;;19.39;16.21
58973;BME280;44750;52.040;7.472;2023-05-09T16:09:18;99414.34;;;19.21;12.00
58973;BME280;44750;52.040;7.472;2023-05-09T16:14:19;99381.97;;;18.59;0.00
58973;BME280;44750;52.040;7.472;2023-05-09T16:19:20;99395.56;;;18.42;0.00
58973;BME280;44750;52.040;7.472;2023-05-09T16:24:20;99439.06;;;18.74;0.00
58973;BME280;44750;52.040;7.472;2023-05-09T16:29:21;99473.41;;;19.00;0.00
58973;BME280;44750;52.040;7.472;2023-05-09T16:34:21;99522.88;;;19.05;0.00
58973;BME280;44750;52.040;7.472;2023-05-09T16:39:21;99550.19;;;19.12;0.00
58973;BME280;44750;52.040;7.472;2023-05-09T16:44:23;99588.03;;;19.22;0.00
58973;BME280;44750;52.040;7.472;2023-05-09T16:49:24;99598.63;;;19.30;0.00
58973;BME280;44750;52.040;7.472;2023-05-09T16:54:24;99628.44;;;19.27;0.00
58973;BME280;44750;52.040;7.472;2023-05-09T16:59:24;99640.84;;;19.17;0.00
58973;BME280;44750;52.040;7.472;2023-05-09T17:04:24;99653.22;;;19.08;0.00
58973;BME280;44750;52.040;7.472;2023-05-09T17:09:25;99672.28;;;19.03;0.00
58973;BME280;44750;52.040;7.472;2023-05-09T17:14:25;99691.88;;;19.07;0.00
58973;BME280;44750;52.040;7.472;2023-05-09T17:19:25;99685.28;;;18.96;0.00
58973;BME280;44750;52.040;7.472;2023-05-09T17:24:26;99666.78;;;18.72;0.00
58973;BME280;44750;52.040;7.472;2023-05-09T17:29:27;99683.38;;;18.47;0.00
58973;BME280;44750;52.040;7.472;2023-05-09T17:34:28;99757.34;;;18.66;0.00
58973;BME280;44750;52.040;7.472;2023-05-09T17:39:28;99787.38;;;18.61;0.00
58973;BME280;44750;52.040;7.472;2023-05-09T17:44:28;99791.59;;;18.57;0.00
58973;BME280;44750;52.040;7.472;2023-05-09T17:49:28;99798.91;;;18.44;0.00
58973;BME280;44750;52.040;7.472;2023-05-09T17:54:29;99808.78;;;18.27;0.00
58973;BME280;44750;52.040;7.472;2023-05-09T17:59:29;99823.19;;;17.97;0.00
58973;BME280;44750;52.040;7.472;2023-05-09T18:04:29;99846.91;;;18.03;0.00
58973;BME280;44750;52.040;7.472;2023-05-09T18:09:29;99859.78;;;18.02;0.00
58973;BME280;44750;52.040;7.472;2023-05-09T18:14:29;99871.56;;;18.03;0.00
58973;BME280;44750;52.040;7.472;2023-05-09T18:19:30;99871.63;;;17.89;0.00
58973;BME280;44750;52.040;7.472;2023-05-09T18:24:30;99874.38;;;17.89;0.00
58973;BME280;44750;52.040;7.472;2023-05-09T18:29:30;99878.03;;;17.83;0.00
58973;BME280;44750;52.040;7.472;2023-05-09T18:34:31;99874.53;;;17.69;0.00
58973;BME280;44750;52.040;7.472;2023-05-09T18:39:31;99889.03;;;17.70;0.00
58973;BME280;44750;52.040;7.472;2023-05-09T18:44:31;99879.25;;;17.55;0.00
58973;BME280;44750;52.040;7.472;2023-05-09T18:49:32;99884.13;;;17.47;0.00
58973;BME280;44750;52.040;7.472;2023-05-09T18:54:35;99894.03;;;17.48;0.00
58973;BME280;44750;52.040;7.472;2023-05-09T18:59:35;99907.66;;;17.54;0.00
58973;BME280;44750;52.040;7.472;2023-05-09T19:04:36;99902.84;;;17.50;0.00
58973;BME280;44750;52.040;7.472;2023-05-09T19:09:36;99924.09;;;17.54;0.00
58973;BME280;44750;52.040;7.472;2023-05-09T19:14:36;99928.06;;;17.59;0.00
58973;BME280;44750;52.040;7.472;2023-05-09T19:19:36;99934.84;;;17.49;0.00
58973;BME280;44750;52.040;7.472;2023-05-09T19:24:37;99941.81;;;17.45;0.00
58973;BME280;44750;52.040;7.472;2023-05-09T19:29:37;99955.47;;;17.45;0.00
58973;BME280;44750;52.040;7.472;2023-05-09T19:34:37;99945.44;;;17.32;0.00
58973;BME280;44750;52.040;7.472;2023-05-09T19:39:38;99969.03;;;17.27;0.00
58973;BME280;44750;52.040;7.472;2023-05-09T19:44:38;99973.69;;;17.19;0.00
58973;BME280;44750;52.040;7.472;2023-05-09T19:49:41;99979.97;;;17.20;0.00
58973;BME280;44750;52.040;7.472;2023-05-09T19:54:41;99996.81;;;17.17;0.00
58973;BME280;44750;52.040;7.472;2023-05-09T19:59:42;100013.22;;;17.24;0.00
58973;BME280;44750;52.040;7.472;2023-05-09T20:04:42;99994.72;;;17.05;0.00
58973;BME280;44750;52.040;7.472;2023-05-09T20:09:42;100021.66;;;17.15;0.00
58973;BME280;44750;52.040;7.472;2023-05-09T20:14:42;100018.72;;;17.10;0.00
58973;BME280;44750;52.040;7.472;2023-05-09T20:19:43;100039.50;;;17.18;0.00
58973;BME280;44750;52.040;7.472;2023-05-09T20:24:43;100015.59;;;16.93;0.00
58973;BME280;44750;52.040;7.472;2023-05-09T20:29:43;100015.34;;;16.75;0.00
58973;BME280;44750;52.040;7.472;2023-05-09T20:34:44;100028.81;;;16.63;0.00
58973;BME280;44750;52.040;7.472;2023-05-09T20:39:44;100058.66;;;16.71;0.00
58973;BME280;44750;52.040;7.472;2023-05-09T20:44:45;100057.16;;;16.48;0.00
58973;BME280;44750;52.040;7.472;2023-05-09T20:49:45;100075.44;;;16.41;0.00
58973;BME280;44750;52.040;7.472;2023-05-09T20:54:45;100091.38;;;16.31;0.00
58973;BME280;44750;52.040;7.472;2023-05-09T20:59:46;100129.19;;;16.34;0.00
58973;BME280;44750;52.040;7.472;2023-05-09T21:04:46;100147.03;;;16.30;0.00
58973;BME280;44750;52.040;7.472;2023-05-09T21:09:46;100171.84;;;16.35;0.00
58973;BME280;44750;52.040;7.472;2023-05-09T21:14:46;100169.06;;;16.21;0.00
58973;BME280;44750;52.040;7.472;2023-05-09T21:19:47;100193.88;;;16.27;0.00
58973;BME280;44750;52.040;7.472;2023-05-09T21:24:47;100222.28;;;16.39;0.00
58973;BME280;44750;52.040;7.472;2023-05-09T21:29:47;100245.28;;;16.51;0.00
58973;BME280;44750;52.040;7.472;2023-05-09T21:34:47;100253.66;;;16.50;0.00
58973;BME280;44750;52.040;7.472;2023-05-09T21:39:48;100253.25;;;16.53;0.00
58973;BME280;44750;52.040;7.472;2023-05-09T21:44:48;100237.63;;;16.40;0.00
58973;BME280;44750;52.040;7.472;2023-05-09T21:49:48;100241.16;;;16.34;0.00
58973;BME280;44750;52.040;7.472;2023-05-09T21:54:48;100252.09;;;16.34;0.00
58973;BME280;44750;52.040;7.472;2023-05-09T21:59:49;100242.59;;;16.23;0.00
58973;BME280;44750;52.040;7.472;2023-05-09T22:04:49;100244.28;;;16.24;0.00
58973;BME280;44750;52.040;7.472;2023-05-09T22:09:49;100271.25;;;16.41;0.00
58973;BME280;44750;52.040;7.472;2023-05-09T22:14:49;100276.75;;;16.47;0.00
58973;BME280;44750;52.040;7.472;2023-05-09T22:19:49;100276.38;;;16.50;0.00
58973;BME280;44750;52.040;7.472;2023-05-09T22:24:50;100259.50;;;16.40;0.00
58973;BME280;44750;52.040;7.472;2023-05-09T22:29:50;100227.41;;;16.14;0.00
58973;BME280;44750;52.040;7.472;2023-05-09T22:34:50;100239.44;;;16.19;0.00
58973;BME280;44750;52.040;7.472;2023-05-09T22:39:50;100242.59;;;16.23;0.00
58973;BME280;44750;52.040;7.472;2023-05-09T22:44:51;100261.50;;;16.25;0.00
58973;BME280;44750;52.040;7.472;2023-05-09T22:49:51;100235.19;;;16.10;0.00
58973;BME280;44750;52.040;7.472;2023-05-09T22:54:52;100245.69;;;16.13;0.00
58973;BME280;44750;52.040;7.472;2023-05-09T22:59:52;100234.69;;;16.00;0.00
58973;BME280;44750;52.040;7.472;2023-05-09T23:04:52;100224.16;;;15.90;0.00
58973;BME280;44750;52.040;7.472;2023-05-09T23:09:52;100236.19;;;15.74;0.00
58973;BME280;44750;52.040;7.472;2023-05-09T23:14:53;100235.28;;;15.67;0.00
58973;BME280;44750;52.040;7.472;2023-05-09T23:19:53;100272.03;;;15.71;0.00
58973;BME280;44750;52.040;7.472;2023-05-09T23:24:53;100283.88;;;15.78;0.00
58973;BME280;44750;52.040;7.472;2023-05-09T23:29:54;100280.69;;;15.75;0.00
58973;BME280;44750;52.040;7.472;2023-05-09T23:34:54;100295.44;;;15.80;0.00
58973;BME280;44750;52.040;7.472;2023-05-09T23:39:54;100302.75;;;15.80;0.00
58973;BME280;44750;52.040;7.472;2023-05-09T23:44:54;100293.88;;;15.71;0.00
58973;BME280;44750;52.040;7.472;2023-05-09T23:49:55;100294.91;;;15.70;0.00
58973;BME280;44750;52.040;7.472;2023-05-09T23:54:55;100314.25;;;15.75;0.00
58973;BME280;44750;52.040;7.472;2023-05-09T23:59:55;100315.50;;;15.72;0.00
